sensor_id;sensor_type;location;lat;lon;timestamp;pressure;altitude;pressure_sealevel;temperature;humidity
12178;BME280;6152;48.728;9.256;2023-03-23T00:01:18;96539.16;;;12.70;66.57
12178;BME280;6152;48.728;9.256;2023-03-23T00:03:49;96537.50;;;12.69;66.69
12178;BME280;6152;48.728;9.256;2023-03-23T00:06:17;96529.19;;;12.63;67.85
12178;BME280;6152;48.728;9.256;2023-03-23T00:08:51;96527.53;;;12.62;67.71
12178;BME280;6152;48.728;9.256;2023-03-23T00:11:24;96531.31;;;12.58;68.60
12178;BME280;6152;48.728;9.256;2023-03-23T00:13:52;96527.31;;;12.54;69.14
12178;BME280;6152;48.728;9.256;2023-03-23T00:16:24;96533.47;;;12.53;69.73
12178;BME280;6152;48.728;9.256;2023-03-23T00:19:03;96535.38;;;12.51;69.71
12178;BME280;6152;48.728;9.256;2023-03-23T00:21:32;96540.13;;;12.46;70.14
12178;BME280;6152;48.728;9.256;2023-03-23T00:26:38;96537.00;;;12.41;70.89
12178;BME280;6152;48.728;9.256;2023-03-23T00:29:15;96530.41;;;12.37;71.83
12178;BME280;6152;48.728;9.256;2023-03-23T00:31:43;96523.75;;;12.33;72.67
12178;BME280;6152;48.728;9.256;2023-03-23T00:34:17;96518.28;;;12.36;72.39
12178;BME280;6152;48.728;9.256;2023-03-23T00:36:46;96520.31;;;12.33;72.82
12178;BME280;6152;48.728;9.256;2023-03-23T00:39:12;96524.91;;;12.29;74.18
12178;BME280;6152;48.728;9.256;2023-03-23T00:41:45;96519.94;;;12.26;75.00
12178;BME280;6152;48.728;9.256;2023-03-23T00:44:11;96513.06;;;12.25;75.81
12178;BME280;6152;48.728;9.256;2023-03-23T00:46:43;96507.00;;;12.25;76.42
12178;BME280;6152;48.728;9.256;2023-03-23T00:49:16;96505.56;;;12.21;76.88
12178;BME280;6152;48.728;9.256;2023-03-23T00:51:43;96504.03;;;12.18;77.66
12178;BME280;6152;48.728;9.256;2023-03-23T00:54:10;96493.75;;;12.17;78.46
12178;BME280;6152;48.728;9.256;2023-03-23T00:56:36;96495.63;;;12.14;78.88
12178;BME280;6152;48.728;9.256;2023-03-23T00:59:03;96495.75;;;12.13;78.25
12178;BME280;6152;48.728;9.256;2023-03-23T01:01:30;96493.94;;;12.13;79.12
12178;BME280;6152;48.728;9.256;2023-03-23T01:03:57;96490.63;;;12.11;79.84
12178;BME280;6152;48.728;9.256;2023-03-23T01:06:27;96497.63;;;12.11;80.51
12178;BME280;6152;48.728;9.256;2023-03-23T01:08:54;96493.38;;;12.10;81.33
12178;BME280;6152;48.728;9.256;2023-03-23T01:11:22;96486.50;;;12.09;82.21
12178;BME280;6152;48.728;9.256;2023-03-23T01:13:49;96487.44;;;12.08;82.15
12178;BME280;6152;48.728;9.256;2023-03-23T01:16:15;96489.34;;;12.06;81.27
12178;BME280;6152;48.728;9.256;2023-03-23T01:18:41;96495.41;;;12.06;79.19
12178;BME280;6152;48.728;9.256;2023-03-23T01:21:12;96483.16;;;12.07;78.50
12178;BME280;6152;48.728;9.256;2023-03-23T01:23:39;96483.16;;;12.07;78.68
12178;BME280;6152;48.728;9.256;2023-03-23T01:26:07;96481.97;;;12.11;77.07
12178;BME280;6152;48.728;9.256;2023-03-23T01:28:34;96477.50;;;12.13;76.95
12178;BME280;6152;48.728;9.256;2023-03-23T01:31:06;96465.38;;;12.12;76.35
12178;BME280;6152;48.728;9.256;2023-03-23T01:33:33;96468.69;;;12.14;76.14
12178;BME280;6152;48.728;9.256;2023-03-23T01:36:05;96463.25;;;12.17;76.09
12178;BME280;6152;48.728;9.256;2023-03-23T01:38:33;96454.72;;;12.15;77.14
12178;BME280;6152;48.728;9.256;2023-03-23T01:40:59;96444.28;;;12.15;78.43
12178;BME280;6152;48.728;9.256;2023-03-23T01:43:26;96443.44;;;12.14;79.68
12178;BME280;6152;48.728;9.256;2023-03-23T01:45:52;96448.81;;;12.13;79.04
12178;BME280;6152;48.728;9.256;2023-03-23T01:48:33;96437.63;;;12.11;78.36
12178;BME280;6152;48.728;9.256;2023-03-23T01:51:13;96437.78;;;12.09;79.22
12178;BME280;6152;48.728;9.256;2023-03-23T01:53:49;96429.13;;;12.09;79.69
12178;BME280;6152;48.728;9.256;2023-03-23T01:56:18;96434.34;;;12.09;80.46
12178;BME280;6152;48.728;9.256;2023-03-23T01:58:46;96432.66;;;12.08;82.54
12178;BME280;6152;48.728;9.256;2023-03-23T02:01:13;96429.22;;;12.07;83.05
12178;BME280;6152;48.728;9.256;2023-03-23T02:03:42;96430.41;;;12.03;82.29
12178;BME280;6152;48.728;9.256;2023-03-23T02:06:11;96437.44;;;12.03;82.87
12178;BME280;6152;48.728;9.256;2023-03-23T02:08:37;96430.66;;;12.00;83.80
12178;BME280;6152;48.728;9.256;2023-03-23T02:11:18;96426.50;;;11.98;84.73
12178;BME280;6152;48.728;9.256;2023-03-23T02:13:45;96430.03;;;11.97;85.73
12178;BME280;6152;48.728;9.256;2023-03-23T02:37:04;96432.28;;;11.79;91.60
12178;BME280;6152;48.728;9.256;2023-03-23T02:39:17;96422.81;;;11.78;92.69
12178;BME280;6152;48.728;9.256;2023-03-23T02:41:52;96421.84;;;11.79;90.38
12178;BME280;6152;48.728;9.256;2023-03-23T02:44:20;96409.91;;;11.77;90.42
12178;BME280;6152;48.728;9.256;2023-03-23T02:46:48;96406.44;;;11.76;90.20
12178;BME280;6152;48.728;9.256;2023-03-23T02:49:15;96385.00;;;11.73;91.00
12178;BME280;6152;48.728;9.256;2023-03-23T02:51:45;96383.38;;;11.72;91.30
12178;BME280;6152;48.728;9.256;2023-03-23T02:54:13;96387.59;;;11.73;91.92
12178;BME280;6152;48.728;9.256;2023-03-23T02:56:41;96385.00;;;11.73;93.39
12178;BME280;6152;48.728;9.256;2023-03-23T02:59:09;96389.41;;;11.72;96.02
12178;BME280;6152;48.728;9.256;2023-03-23T03:04:07;96397.34;;;11.71;98.75
12178;BME280;6152;48.728;9.256;2023-03-23T03:09:48;96388.28;;;11.63;97.71
12178;BME280;6152;48.728;9.256;2023-03-23T03:12:31;96383.78;;;11.65;98.36
12178;BME280;6152;48.728;9.256;2023-03-23T03:17:53;96380.81;;;11.59;99.44
12178;BME280;6152;48.728;9.256;2023-03-23T03:20:22;96374.91;;;11.57;99.68
12178;BME280;6152;48.728;9.256;2023-03-23T03:22:51;96372.31;;;11.57;100.00
12178;BME280;6152;48.728;9.256;2023-03-23T03:25:18;96370.53;;;11.57;100.00
12178;BME280;6152;48.728;9.256;2023-03-23T03:27:47;96369.09;;;11.53;100.00
12178;BME280;6152;48.728;9.256;2023-03-23T03:30:17;96374.53;;;11.50;100.00
12178;BME280;6152;48.728;9.256;2023-03-23T03:32:47;96372.88;;;11.49;100.00
12178;BME280;6152;48.728;9.256;2023-03-23T03:35:17;96369.56;;;11.47;100.00
12178;BME280;6152;48.728;9.256;2023-03-23T03:37:44;96370.50;;;11.46;100.00
12178;BME280;6152;48.728;9.256;2023-03-23T03:40:13;96370.59;;;11.45;100.00
12178;BME280;6152;48.728;9.256;2023-03-23T03:42:43;96371.69;;;11.42;100.00
12178;BME280;6152;48.728;9.256;2023-03-23T03:45:15;96376.06;;;11.42;100.00
12178;BME280;6152;48.728;9.256;2023-03-23T03:47:42;96365.78;;;11.40;100.00
12178;BME280;6152;48.728;9.256;2023-03-23T03:50:08;96374.41;;;11.41;100.00
12178;BME280;6152;48.728;9.256;2023-03-23T03:52:35;96377.13;;;11.39;100.00
12178;BME280;6152;48.728;9.256;2023-03-23T03:55:01;96380.44;;;11.41;100.00
12178;BME280;6152;48.728;9.256;2023-03-23T03:57:27;96369.06;;;11.42;100.00
12178;BME280;6152;48.728;9.256;2023-03-23T03:59:53;96358.78;;;11.41;100.00
12178;BME280;6152;48.728;9.256;2023-03-23T04:02:20;96355.78;;;11.34;100.00
12178;BME280;6152;48.728;9.256;2023-03-23T04:04:50;96361.25;;;11.42;100.00
12178;BME280;6152;48.728;9.256;2023-03-23T04:07:18;96361.84;;;11.46;100.00
12178;BME280;6152;48.728;9.256;2023-03-23T04:09:45;96349.66;;;11.46;100.00
12178;BME280;6152;48.728;9.256;2023-03-23T04:12:14;96361.03;;;11.45;100.00
12178;BME280;6152;48.728;9.256;2023-03-23T04:14:40;96355.94;;;11.44;100.00
12178;BME280;6152;48.728;9.256;2023-03-23T04:17:07;96355.13;;;11.43;100.00
12178;BME280;6152;48.728;9.256;2023-03-23T04:19:35;96359.38;;;11.44;100.00
12178;BME280;6152;48.728;9.256;2023-03-23T04:22:03;96362.00;;;11.44;100.00
12178;BME280;6152;48.728;9.256;2023-03-23T04:24:30;96367.06;;;11.46;100.00
12178;BME280;6152;48.728;9.256;2023-03-23T04:26:59;96368.75;;;11.47;100.00
12178;BME280;6152;48.728;9.256;2023-03-23T04:29:25;96370.41;;;11.48;100.00
12178;BME280;6152;48.728;9.256;2023-03-23T04:31:52;96366.00;;;11.48;100.00
12178;BME280;6152;48.728;9.256;2023-03-23T04:34:19;96371.94;;;11.50;100.00
12178;BME280;6152;48.728;9.256;2023-03-23T04:36:45;96366.00;;;11.48;100.00
12178;BME280;6152;48.728;9.256;2023-03-23T04:39:14;96369.34;;;11.50;100.00
12178;BME280;6152;48.728;9.256;2023-03-23T04:41:41;96377.84;;;11.52;100.00
12178;BME280;6152;48.728;9.256;2023-03-23T04:44:08;96371.47;;;11.56;100.00
12178;BME280;6152;48.728;9.256;2023-03-23T04:46:34;96372.16;;;11.58;100.00
12178;BME280;6152;48.728;9.256;2023-03-23T04:49:00;96365.78;;;11.62;100.00
12178;BME280;6152;48.728;9.256;2023-03-23T04:51:30;96363.91;;;11.76;97.68
12178;BME280;6152;48.728;9.256;2023-03-23T04:53:57;96363.22;;;11.85;98.38
12178;BME280;6152;48.728;9.256;2023-03-23T04:56:23;96360.38;;;11.99;94.60
12178;BME280;6152;48.728;9.256;2023-03-23T04:58:49;96353.34;;;12.10;93.43
12178;BME280;6152;48.728;9.256;2023-03-23T05:01:15;96358.22;;;12.15;93.13
12178;BME280;6152;48.728;9.256;2023-03-23T05:03:43;96352.50;;;12.21;92.44
12178;BME280;6152;48.728;9.256;2023-03-23T05:06:10;96361.06;;;12.23;92.10
12178;BME280;6152;48.728;9.256;2023-03-23T05:08:36;96365.88;;;12.28;92.42
12178;BME280;6152;48.728;9.256;2023-03-23T05:11:06;96364.00;;;12.30;92.94
12178;BME280;6152;48.728;9.256;2023-03-23T05:13:33;96368.13;;;12.32;91.40
12178;BME280;6152;48.728;9.256;2023-03-23T05:16:04;96367.19;;;12.33;90.41
12178;BME280;6152;48.728;9.256;2023-03-23T05:18:30;96370.63;;;12.34;89.62
12178;BME280;6152;48.728;9.256;2023-03-23T05:21:00;96365.28;;;12.35;89.04
12178;BME280;6152;48.728;9.256;2023-03-23T05:23:26;96368.38;;;12.40;95.20
12178;BME280;6152;48.728;9.256;2023-03-23T05:25:54;96374.06;;;12.34;96.64
12178;BME280;6152;48.728;9.256;2023-03-23T05:28:20;96368.97;;;12.33;96.56
12178;BME280;6152;48.728;9.256;2023-03-23T05:30:48;96364.69;;;12.32;97.40
12178;BME280;6152;48.728;9.256;2023-03-23T05:33:14;96359.63;;;12.30;97.51
12178;BME280;6152;48.728;9.256;2023-03-23T05:35:41;96356.28;;;12.28;98.32
12178;BME280;6152;48.728;9.256;2023-03-23T05:38:07;96370.31;;;12.27;98.63
12178;BME280;6152;48.728;9.256;2023-03-23T05:40:33;96361.63;;;12.27;98.08
12178;BME280;6152;48.728;9.256;2023-03-23T05:42:59;96363.28;;;12.28;96.65
12178;BME280;6152;48.728;9.256;2023-03-23T05:45:26;96358.19;;;12.26;96.04
12178;BME280;6152;48.728;9.256;2023-03-23T05:47:52;96359.88;;;12.27;94.81
12178;BME280;6152;48.728;9.256;2023-03-23T05:50:19;96361.50;;;12.28;95.44
12178;BME280;6152;48.728;9.256;2023-03-23T05:52:45;96366.72;;;12.28;96.35
12178;BME280;6152;48.728;9.256;2023-03-23T05:55:12;96371.94;;;12.28;96.61
12178;BME280;6152;48.728;9.256;2023-03-23T05:57:39;96366.47;;;12.31;96.00
12178;BME280;6152;48.728;9.256;2023-03-23T06:00:06;96378.34;;;12.35;93.51
12178;BME280;6152;48.728;9.256;2023-03-23T06:02:46;96379.06;;;12.37;93.45
12178;BME280;6152;48.728;9.256;2023-03-23T06:05:13;96389.00;;;12.43;91.63
12178;BME280;6152;48.728;9.256;2023-03-23T06:07:39;96376.28;;;12.50;91.19
12178;BME280;6152;48.728;9.256;2023-03-23T06:10:07;96379.94;;;12.58;91.14
12178;BME280;6152;48.728;9.256;2023-03-23T06:12:35;96393.94;;;12.69;89.96
12178;BME280;6152;48.728;9.256;2023-03-23T06:15:01;96394.84;;;12.79;89.27
12178;BME280;6152;48.728;9.256;2023-03-23T06:17:29;96405.03;;;12.82;87.12
12178;BME280;6152;48.728;9.256;2023-03-23T06:19:55;96405.47;;;12.87;87.35
12178;BME280;6152;48.728;9.256;2023-03-23T06:22:21;96399.78;;;12.93;87.13
12178;BME280;6152;48.728;9.256;2023-03-23T06:24:47;96399.28;;;12.99;87.15
12178;BME280;6152;48.728;9.256;2023-03-23T06:27:14;96407.53;;;13.04;86.06
12178;BME280;6152;48.728;9.256;2023-03-23T06:29:42;96415.88;;;13.09;86.21
12178;BME280;6152;48.728;9.256;2023-03-23T06:32:11;96430.34;;;13.13;84.74
12178;BME280;6152;48.728;9.256;2023-03-23T06:34:38;96422.69;;;13.21;82.47
12178;BME280;6152;48.728;9.256;2023-03-23T06:37:06;96423.69;;;13.20;81.30
12178;BME280;6152;48.728;9.256;2023-03-23T06:39:32;96415.31;;;13.26;78.99
12178;BME280;6152;48.728;9.256;2023-03-23T06:41:58;96409.16;;;13.27;79.92
12178;BME280;6152;48.728;9.256;2023-03-23T06:44:27;96421.63;;;13.24;79.89
12178;BME280;6152;48.728;9.256;2023-03-23T06:46:53;96426.16;;;13.22;79.86
12178;BME280;6152;48.728;9.256;2023-03-23T06:49:19;96428.91;;;13.20;79.21
12178;BME280;6152;48.728;9.256;2023-03-23T06:51:45;96432.47;;;13.19;79.92
12178;BME280;6152;48.728;9.256;2023-03-23T06:54:11;96426.41;;;13.19;80.12
12178;BME280;6152;48.728;9.256;2023-03-23T06:56:38;96423.69;;;13.20;80.94
12178;BME280;6152;48.728;9.256;2023-03-23T06:59:04;96430.28;;;13.24;80.61
12178;BME280;6152;48.728;9.256;2023-03-23T07:01:30;96429.53;;;13.33;80.58
12178;BME280;6152;48.728;9.256;2023-03-23T07:03:56;96425.91;;;13.45;80.44
12178;BME280;6152;48.728;9.256;2023-03-23T07:06:24;96435.09;;;13.60;78.96
12178;BME280;6152;48.728;9.256;2023-03-23T07:08:52;96437.19;;;13.66;77.46
12178;BME280;6152;48.728;9.256;2023-03-23T07:11:18;96436.41;;;13.76;77.80
12178;BME280;6152;48.728;9.256;2023-03-23T07:13:44;96427.91;;;13.83;76.68
12178;BME280;6152;48.728;9.256;2023-03-23T07:16:11;96425.34;;;13.93;75.58
12178;BME280;6152;48.728;9.256;2023-03-23T07:18:37;96441.22;;;14.01;74.45
12178;BME280;6152;48.728;9.256;2023-03-23T07:21:03;96435.75;;;14.04;72.36
12178;BME280;6152;48.728;9.256;2023-03-23T07:23:30;96440.03;;;14.05;74.05
12178;BME280;6152;48.728;9.256;2023-03-23T07:25:56;96447.88;;;14.05;74.60
12178;BME280;6152;48.728;9.256;2023-03-23T07:28:23;96452.84;;;14.08;73.71
12178;BME280;6152;48.728;9.256;2023-03-23T07:30:49;96448.81;;;14.04;73.33
12178;BME280;6152;48.728;9.256;2023-03-23T07:33:16;96460.00;;;14.06;72.17
12178;BME280;6152;48.728;9.256;2023-03-23T07:35:43;96466.88;;;14.07;73.11
12178;BME280;6152;48.728;9.256;2023-03-23T07:38:09;96469.75;;;14.04;73.23
12178;BME280;6152;48.728;9.256;2023-03-23T07:40:35;96474.97;;;14.04;73.94
12178;BME280;6152;48.728;9.256;2023-03-23T07:43:03;96473.19;;;14.04;73.76
12178;BME280;6152;48.728;9.256;2023-03-23T07:45:30;96479.28;;;14.05;74.13
12178;BME280;6152;48.728;9.256;2023-03-23T07:47:56;96479.84;;;14.08;74.28
12178;BME280;6152;48.728;9.256;2023-03-23T07:50:23;96478.75;;;14.11;73.60
12178;BME280;6152;48.728;9.256;2023-03-23T07:52:59;96477.41;;;14.16;75.22
12178;BME280;6152;48.728;9.256;2023-03-23T07:55:26;96478.03;;;14.30;73.84
12178;BME280;6152;48.728;9.256;2023-03-23T07:57:54;96480.59;;;14.41;74.25
12178;BME280;6152;48.728;9.256;2023-03-23T08:00:22;96481.28;;;14.52;73.22
12178;BME280;6152;48.728;9.256;2023-03-23T08:02:51;96491.94;;;14.60;72.55
12178;BME280;6152;48.728;9.256;2023-03-23T08:05:19;96488.97;;;14.75;71.59
12178;BME280;6152;48.728;9.256;2023-03-23T08:07:47;96493.38;;;14.84;70.29
12178;BME280;6152;48.728;9.256;2023-03-23T08:10:15;96484.88;;;15.01;71.55
12178;BME280;6152;48.728;9.256;2023-03-23T08:12:43;96487.66;;;15.09;69.86
12178;BME280;6152;48.728;9.256;2023-03-23T08:15:11;96493.03;;;15.17;68.51
12178;BME280;6152;48.728;9.256;2023-03-23T08:17:39;96496.75;;;15.14;68.36
12178;BME280;6152;48.728;9.256;2023-03-23T08:20:07;96510.56;;;15.26;69.91
12178;BME280;6152;48.728;9.256;2023-03-23T08:22:42;96504.50;;;15.26;68.49
12178;BME280;6152;48.728;9.256;2023-03-23T08:25:11;96497.06;;;15.31;69.73
12178;BME280;6152;48.728;9.256;2023-03-23T08:27:37;96508.22;;;15.42;68.69
12178;BME280;6152;48.728;9.256;2023-03-23T08:30:10;96504.66;;;15.43;67.34
12178;BME280;6152;48.728;9.256;2023-03-23T08:32:37;96502.63;;;15.56;68.58
12178;BME280;6152;48.728;9.256;2023-03-23T08:35:03;96505.50;;;15.73;67.89
12178;BME280;6152;48.728;9.256;2023-03-23T08:37:30;96506.75;;;15.88;66.31
12178;BME280;6152;48.728;9.256;2023-03-23T08:39:57;96520.25;;;15.93;66.32
12178;BME280;6152;48.728;9.256;2023-03-23T08:42:24;96514.72;;;15.86;67.40
12178;BME280;6152;48.728;9.256;2023-03-23T08:44:51;96512.53;;;15.91;67.96
12178;BME280;6152;48.728;9.256;2023-03-23T08:47:18;96515.84;;;15.93;68.18
12178;BME280;6152;48.728;9.256;2023-03-23T08:49:44;96515.00;;;16.02;68.20
12178;BME280;6152;48.728;9.256;2023-03-23T08:52:11;96526.06;;;15.87;68.06
12178;BME280;6152;48.728;9.256;2023-03-23T08:54:37;96528.81;;;15.76;69.35
12178;BME280;6152;48.728;9.256;2023-03-23T08:57:04;96529.13;;;15.63;70.39
12178;BME280;6152;48.728;9.256;2023-03-23T08:59:30;96528.44;;;15.51;72.07
12178;BME280;6152;48.728;9.256;2023-03-23T09:01:57;96537.09;;;15.42;73.90
12178;BME280;6152;48.728;9.256;2023-03-23T09:04:23;96539.97;;;15.39;75.41
12178;BME280;6152;48.728;9.256;2023-03-23T09:06:49;96538.75;;;15.43;74.70
12178;BME280;6152;48.728;9.256;2023-03-23T09:09:15;96546.19;;;15.38;76.72
12178;BME280;6152;48.728;9.256;2023-03-23T09:11:41;96534.06;;;15.37;76.64
12178;BME280;6152;48.728;9.256;2023-03-23T09:14:08;96540.84;;;15.49;77.16
12178;BME280;6152;48.728;9.256;2023-03-23T09:16:34;96537.13;;;15.61;76.58
12178;BME280;6152;48.728;9.256;2023-03-23T09:19:01;96549.25;;;15.72;76.91
12178;BME280;6152;48.728;9.256;2023-03-23T09:21:28;96555.22;;;15.84;74.64
12178;BME280;6152;48.728;9.256;2023-03-23T09:23:56;96554.94;;;16.06;74.70
12178;BME280;6152;48.728;9.256;2023-03-23T09:26:25;96558.09;;;16.19;74.05
12178;BME280;6152;48.728;9.256;2023-03-23T09:28:52;96562.63;;;16.17;72.92
12178;BME280;6152;48.728;9.256;2023-03-23T09:31:18;96559.84;;;16.28;71.40
12178;BME280;6152;48.728;9.256;2023-03-23T09:33:48;96557.03;;;16.58;72.22
12178;BME280;6152;48.728;9.256;2023-03-23T09:36:18;96569.63;;;16.64;72.09
12178;BME280;6152;48.728;9.256;2023-03-23T09:38:47;96562.00;;;16.52;69.97
12178;BME280;6152;48.728;9.256;2023-03-23T09:47:39;96569.59;;;16.55;73.14
12178;BME280;6152;48.728;9.256;2023-03-23T09:50:21;96576.41;;;16.57;71.40
12178;BME280;6152;48.728;9.256;2023-03-23T09:53:01;96575.25;;;16.70;72.16
12178;BME280;6152;48.728;9.256;2023-03-23T09:55:29;96573.03;;;16.75;69.88
12178;BME280;6152;48.728;9.256;2023-03-23T09:57:59;96568.91;;;16.62;71.51
12178;BME280;6152;48.728;9.256;2023-03-23T10:00:56;96571.59;;;16.24;70.76
12178;BME280;6152;48.728;9.256;2023-03-23T10:03:41;96565.56;;;16.04;71.59
12178;BME280;6152;48.728;9.256;2023-03-23T10:06:12;96580.47;;;16.04;72.47
12178;BME280;6152;48.728;9.256;2023-03-23T10:08:52;96577.75;;;15.96;72.06
12178;BME280;6152;48.728;9.256;2023-03-23T10:17:11;96585.75;;;16.70;71.81
12178;BME280;6152;48.728;9.256;2023-03-23T10:19:48;96574.53;;;16.77;70.99
12178;BME280;6152;48.728;9.256;2023-03-23T10:22:25;96582.88;;;17.00;71.24
12178;BME280;6152;48.728;9.256;2023-03-23T10:25:16;96582.50;;;16.95;70.86
12178;BME280;6152;48.728;9.256;2023-03-23T10:27:59;96582.94;;;17.17;69.67
12178;BME280;6152;48.728;9.256;2023-03-23T10:30:36;96581.53;;;17.23;66.63
12178;BME280;6152;48.728;9.256;2023-03-23T10:36:04;96592.63;;;17.17;68.37
12178;BME280;6152;48.728;9.256;2023-03-23T10:38:48;96592.66;;;17.07;69.63
12178;BME280;6152;48.728;9.256;2023-03-23T10:41:17;96582.19;;;16.98;69.61
12178;BME280;6152;48.728;9.256;2023-03-23T10:43:45;96585.66;;;16.98;68.45
12178;BME280;6152;48.728;9.256;2023-03-23T10:49:09;96594.72;;;16.77;70.78
12178;BME280;6152;48.728;9.256;2023-03-23T10:51:41;96592.75;;;16.88;71.51
12178;BME280;6152;48.728;9.256;2023-03-23T10:54:09;96601.47;;;16.89;72.76
12178;BME280;6152;48.728;9.256;2023-03-23T10:56:43;96595.22;;;16.99;72.39
12178;BME280;6152;48.728;9.256;2023-03-23T10:59:30;96587.94;;;17.11;67.56
12178;BME280;6152;48.728;9.256;2023-03-23T11:02:02;96603.13;;;17.17;68.30
12178;BME280;6152;48.728;9.256;2023-03-23T11:04:30;96595.06;;;17.28;68.21
12178;BME280;6152;48.728;9.256;2023-03-23T11:07:01;96593.78;;;17.32;68.99
12178;BME280;6152;48.728;9.256;2023-03-23T11:09:40;96594.75;;;17.31;68.72
12178;BME280;6152;48.728;9.256;2023-03-23T11:12:18;96586.50;;;17.26;67.19
12178;BME280;6152;48.728;9.256;2023-03-23T11:14:45;96591.03;;;17.51;64.86
12178;BME280;6152;48.728;9.256;2023-03-23T11:17:25;96592.53;;;17.36;66.27
12178;BME280;6152;48.728;9.256;2023-03-23T11:19:53;96592.06;;;17.23;68.46
12178;BME280;6152;48.728;9.256;2023-03-23T11:22:33;96585.72;;;17.16;68.27
12178;BME280;6152;48.728;9.256;2023-03-23T11:25:04;96586.56;;;17.07;67.95
12178;BME280;6152;48.728;9.256;2023-03-23T11:27:31;96581.31;;;17.07;68.81
12178;BME280;6152;48.728;9.256;2023-03-23T11:30:19;96586.69;;;17.15;71.76
12178;BME280;6152;48.728;9.256;2023-03-23T11:32:46;96580.09;;;17.29;69.67
12178;BME280;6152;48.728;9.256;2023-03-23T11:35:42;96585.25;;;17.03;71.50
12178;BME280;6152;48.728;9.256;2023-03-23T11:38:19;96576.34;;;17.04;76.72
12178;BME280;6152;48.728;9.256;2023-03-23T11:40:50;96575.78;;;17.10;74.31
12178;BME280;6152;48.728;9.256;2023-03-23T11:43:26;96578.13;;;16.76;77.84
12178;BME280;6152;48.728;9.256;2023-03-23T11:46:01;96574.53;;;16.77;82.21
12178;BME280;6152;48.728;9.256;2023-03-23T11:48:41;96571.94;;;17.04;77.52
12178;BME280;6152;48.728;9.256;2023-03-23T11:51:24;96560.97;;;17.09;75.72
12178;BME280;6152;48.728;9.256;2023-03-23T11:54:29;96561.56;;;17.57;74.04
12178;BME280;6152;48.728;9.256;2023-03-23T11:56:52;96569.44;;;17.57;69.54
12178;BME280;6152;48.728;9.256;2023-03-23T11:59:26;96562.09;;;17.79;70.16
12178;BME280;6152;48.728;9.256;2023-03-23T12:01:57;96562.84;;;17.89;67.67
12178;BME280;6152;48.728;9.256;2023-03-23T12:12:56;96554.47;;;18.54;61.84
12178;BME280;6152;48.728;9.256;2023-03-23T12:15:29;96554.59;;;18.53;60.81
12178;BME280;6152;48.728;9.256;2023-03-23T12:18:37;96551.97;;;18.53;59.22
12178;BME280;6152;48.728;9.256;2023-03-23T12:21:36;96547.13;;;18.23;60.99
12178;BME280;6152;48.728;9.256;2023-03-23T12:26:56;96551.06;;;18.01;59.65
12178;BME280;6152;48.728;9.256;2023-03-23T12:29:33;96547.41;;;17.94;60.85
12178;BME280;6152;48.728;9.256;2023-03-23T12:32:26;96544.25;;;17.73;62.02
12178;BME280;6152;48.728;9.256;2023-03-23T12:35:59;96554.94;;;17.71;63.59
12178;BME280;6152;48.728;9.256;2023-03-23T12:40:51;96549.69;;;17.71;64.10
12178;BME280;6152;48.728;9.256;2023-03-23T12:51:43;96539.22;;;17.61;61.81
12178;BME280;6152;48.728;9.256;2023-03-23T12:56:50;96539.88;;;17.81;60.61
12178;BME280;6152;48.728;9.256;2023-03-23T13:08:01;96526.63;;;17.91;59.18
12178;BME280;6152;48.728;9.256;2023-03-23T13:10:34;96526.50;;;18.18;59.29
12178;BME280;6152;48.728;9.256;2023-03-23T13:13:02;96521.34;;;18.34;58.73
12178;BME280;6152;48.728;9.256;2023-03-23T13:15:52;96510.91;;;18.25;58.87
12178;BME280;6152;48.728;9.256;2023-03-23T13:23:41;96504.25;;;18.12;58.28
12178;BME280;6152;48.728;9.256;2023-03-23T13:26:13;96506.91;;;18.12;58.72
12178;BME280;6152;48.728;9.256;2023-03-23T13:29:05;96502.13;;;17.90;58.11
12178;BME280;6152;48.728;9.256;2023-03-23T13:31:37;96493.56;;;17.88;59.26
12178;BME280;6152;48.728;9.256;2023-03-23T13:36:42;96502.00;;;18.00;57.95
12178;BME280;6152;48.728;9.256;2023-03-23T13:50:00;96477.63;;;17.54;58.57
12178;BME280;6152;48.728;9.256;2023-03-23T13:52:46;96467.47;;;17.59;58.95
12178;BME280;6152;48.728;9.256;2023-03-23T14:05:39;96463.78;;;17.70;58.26
12178;BME280;6152;48.728;9.256;2023-03-23T14:10:43;96462.09;;;17.51;58.44
12178;BME280;6152;48.728;9.256;2023-03-23T14:13:19;96462.66;;;17.37;59.23
12178;BME280;6152;48.728;9.256;2023-03-23T14:16:02;96463.63;;;17.36;58.02
12178;BME280;6152;48.728;9.256;2023-03-23T14:18:58;96455.34;;;17.31;58.26
12178;BME280;6152;48.728;9.256;2023-03-23T14:21:38;96453.03;;;17.28;57.47
12178;BME280;6152;48.728;9.256;2023-03-23T14:24:15;96451.22;;;17.29;57.71
12178;BME280;6152;48.728;9.256;2023-03-23T14:26:41;96453.63;;;17.22;56.84
12178;BME280;6152;48.728;9.256;2023-03-23T14:29:11;96452.59;;;17.15;57.54
12178;BME280;6152;48.728;9.256;2023-03-23T14:31:38;96440.19;;;17.07;58.14
12178;BME280;6152;48.728;9.256;2023-03-23T14:34:14;96454.75;;;17.02;57.25
12178;BME280;6152;48.728;9.256;2023-03-23T14:36:42;96452.13;;;17.02;57.03
12178;BME280;6152;48.728;9.256;2023-03-23T14:41:51;96443.09;;;16.87;56.00
12178;BME280;6152;48.728;9.256;2023-03-23T14:44:32;96443.38;;;16.84;56.56
12178;BME280;6152;48.728;9.256;2023-03-23T14:47:06;96446.91;;;16.75;57.22
12178;BME280;6152;48.728;9.256;2023-03-23T14:49:40;96452.50;;;16.89;57.21
12178;BME280;6152;48.728;9.256;2023-03-23T14:52:16;96452.94;;;16.85;57.21
12178;BME280;6152;48.728;9.256;2023-03-23T14:54:44;96453.22;;;16.82;57.24
12178;BME280;6152;48.728;9.256;2023-03-23T14:57:18;96453.53;;;16.96;57.58
12178;BME280;6152;48.728;9.256;2023-03-23T14:59:46;96455.72;;;17.01;56.94
12178;BME280;6152;48.728;9.256;2023-03-23T15:02:27;96426.13;;;16.99;56.18
12178;BME280;6152;48.728;9.256;2023-03-23T15:04:59;96440.66;;;17.03;55.63
12178;BME280;6152;48.728;9.256;2023-03-23T15:07:32;96440.47;;;17.04;55.42
12178;BME280;6152;48.728;9.256;2023-03-23T15:09:59;96438.38;;;17.08;55.28
12178;BME280;6152;48.728;9.256;2023-03-23T15:12:29;96448.91;;;17.08;54.64
12178;BME280;6152;48.728;9.256;2023-03-23T15:15:03;96436.06;;;17.05;53.88
12178;BME280;6152;48.728;9.256;2023-03-23T15:17:35;96454.84;;;17.10;53.68
12178;BME280;6152;48.728;9.256;2023-03-23T15:20:31;96448.75;;;17.09;54.04
12178;BME280;6152;48.728;9.256;2023-03-23T15:23:05;96444.38;;;17.18;54.11
12178;BME280;6152;48.728;9.256;2023-03-23T15:25:34;96453.63;;;17.22;54.85